createdAt,value
2023-01-04T00:02:09.167Z,6.67
2023-01-04T00:04:35.685Z,6.65
2023-01-04T00:07:02.098Z,6.64
2023-01-04T00:09:28.567Z,4.96
2023-01-04T00:11:55.020Z,6.25
2023-01-04T00:14:21.459Z,6.53
2023-01-04T00:16:49.194Z,6.59
2023-01-04T00:19:15.594Z,6.65
2023-01-04T00:21:42.035Z,6.63
2023-01-04T00:24:09.550Z,6.61
2023-01-04T00:26:36.118Z,6.65
2023-01-04T00:29:04.047Z,4.87
2023-01-04T00:31:30.614Z,4.59
2023-01-04T00:33:59.657Z,5.97
2023-01-04T00:36:26.096Z,6.03
2023-01-04T00:39:07.745Z,6.43
2023-01-04T00:41:58.145Z,6.52
2023-01-04T00:44:22.174Z,6.58
2023-01-04T00:46:48.805Z,5.76
2023-01-04T00:49:16.556Z,5.51
2023-01-04T00:51:42.943Z,6.31
2023-01-04T00:54:12.288Z,6.47
2023-01-04T00:56:38.698Z,6.52
2023-01-04T00:59:05.596Z,6.55
2023-01-04T01:01:32.983Z,6.55
2023-01-04T01:04:00.269Z,6.57
2023-01-04T01:06:28.915Z,4.59
2023-01-04T01:08:55.410Z,6.15
2023-01-04T01:11:22.215Z,6.41
2023-01-04T01:13:49.361Z,6.47
2023-01-04T01:16:17.108Z,4.11
2023-01-04T01:18:44.885Z,5.41
2023-01-04T01:21:13.005Z,6.17
2023-01-04T01:23:41.384Z,6.34
2023-01-04T01:26:08.833Z,6.40
2023-01-04T01:28:35.805Z,6.44
2023-01-04T01:31:08.605Z,6.46
2023-01-04T01:33:35.831Z,6.44
2023-01-04T01:36:02.441Z,3.71
2023-01-04T01:38:28.831Z,5.77
2023-01-04T01:40:56.610Z,6.21
2023-01-04T01:43:43.001Z,6.32
2023-01-04T01:46:10.281Z,6.34
2023-01-04T01:48:37.061Z,6.33
2023-01-04T01:51:04.199Z,6.34
2023-01-04T01:53:33.408Z,5.36
2023-01-04T01:56:01.560Z,6.15
2023-01-04T01:58:30.452Z,6.27
2023-01-04T02:00:57.296Z,6.30
2023-01-04T02:03:26.990Z,6.31
2023-01-04T02:05:55.122Z,6.33
2023-01-04T02:08:22.796Z,6.38
2023-01-04T02:10:49.473Z,6.36
2023-01-04T02:13:18.533Z,5.78
2023-01-04T02:15:51.246Z,6.26
2023-01-04T02:18:20.508Z,6.28
2023-01-04T02:20:50.354Z,6.28
2023-01-04T02:23:42.611Z,6.30
2023-01-04T02:26:35.578Z,3.50
2023-01-04T02:29:26.534Z,5.89
2023-01-04T02:31:57.307Z,6.16
2023-01-04T02:34:29.874Z,5.99
2023-01-04T02:36:58.708Z,6.18
2023-01-04T02:39:33.440Z,6.23
2023-01-04T02:42:03.644Z,5.38
2023-01-04T02:44:53.287Z,3.77
2023-01-04T02:47:44.078Z,5.56
2023-01-04T02:50:33.990Z,6.02
2023-01-04T02:53:01.857Z,6.09
2023-01-04T02:55:33.441Z,6.10
2023-01-04T02:58:02.079Z,4.22
2023-01-04T03:00:56.451Z,5.56
2023-01-04T03:03:46.729Z,6.00
2023-01-04T03:06:17.256Z,6.03
2023-01-04T03:08:49.496Z,6.04
2023-01-04T03:11:35.444Z,6.10
2023-01-04T03:14:03.864Z,4.51
2023-01-04T03:16:51.060Z,5.77
2023-01-04T03:19:38.997Z,5.96
2023-01-04T03:22:06.259Z,6.00
2023-01-04T03:24:51.779Z,6.03
2023-01-04T03:27:38.220Z,6.03
2023-01-04T03:30:25.579Z,5.63
2023-01-04T03:33:13.110Z,5.13
2023-01-04T03:35:43.435Z,5.73
2023-01-04T03:38:31.871Z,5.91
2023-01-04T03:41:19.718Z,5.93
2023-01-04T03:44:09.258Z,5.96
2023-01-04T03:46:57.809Z,5.99
2023-01-04T03:49:27.823Z,5.34
2023-01-04T03:51:57.622Z,5.88
2023-01-04T03:54:25.689Z,5.90
2023-01-04T03:56:52.937Z,5.88
2023-01-04T03:59:22.716Z,5.88
2023-01-04T04:01:49.952Z,5.97
2023-01-04T04:04:35.131Z,3.14
2023-01-04T04:07:21.888Z,2.40
2023-01-04T04:09:48.277Z,5.19
2023-01-04T04:12:14.657Z,5.63
2023-01-04T04:14:41.029Z,5.38
2023-01-04T04:17:07.409Z,5.69
2023-01-04T04:19:33.768Z,4.49
2023-01-04T04:22:00.199Z,5.54
2023-01-04T04:24:27.961Z,5.67
2023-01-04T04:26:54.879Z,5.68
2023-01-04T04:29:21.664Z,4.51
2023-01-04T04:31:48.150Z,5.53
2023-01-04T04:34:14.589Z,5.63
2023-01-04T04:36:40.995Z,5.69
2023-01-04T04:39:07.496Z,5.27
2023-01-04T04:41:41.722Z,5.59
2023-01-04T04:44:09.551Z,5.63
2023-01-04T04:46:35.919Z,5.66
2023-01-04T04:49:02.590Z,3.71
2023-01-04T04:51:29.040Z,4.27
2023-01-04T04:53:55.651Z,5.36
2023-01-04T04:56:22.139Z,5.49
2023-01-04T04:58:49.950Z,5.53
2023-01-04T05:01:16.697Z,5.57
2023-01-04T05:03:43.238Z,5.55
2023-01-04T05:06:09.668Z,5.56
2023-01-04T05:08:36.109Z,5.56
2023-01-04T05:11:04.685Z,5.56
2023-01-04T05:13:31.076Z,4.89
2023-01-04T05:15:58.978Z,5.05
2023-01-04T05:18:25.430Z,5.44
2023-01-04T05:20:51.869Z,5.53
2023-01-04T05:23:19.952Z,5.51
2023-01-04T05:25:47.133Z,5.56
2023-01-04T05:28:13.532Z,5.52
2023-01-04T05:30:52.230Z,5.51
2023-01-04T05:33:21.031Z,3.57
2023-01-04T05:35:47.964Z,5.21
2023-01-04T05:38:14.504Z,5.40
2023-01-04T05:40:41.187Z,2.67
2023-01-04T05:43:07.817Z,4.39
2023-01-04T05:45:34.585Z,3.28
2023-01-04T05:48:01.370Z,5.08
2023-01-04T05:50:29.112Z,5.31
2023-01-04T05:52:55.573Z,5.34
2023-01-04T05:55:22.013Z,5.34
2023-01-04T05:57:48.440Z,2.59
2023-01-04T06:00:15.205Z,4.71
2023-01-04T06:02:42.521Z,5.18
2023-01-04T06:05:10.450Z,5.27
2023-01-04T06:07:38.407Z,4.58
2023-01-04T06:10:05.497Z,5.12
2023-01-04T06:12:31.882Z,5.27
2023-01-04T06:14:58.272Z,4.74
2023-01-04T06:17:24.754Z,5.21
2023-01-04T06:19:51.289Z,5.25
2023-01-04T06:22:17.717Z,5.30
2023-01-04T06:24:45.501Z,1.23
2023-01-04T06:27:11.981Z,4.51
2023-01-04T06:29:38.382Z,5.00
2023-01-04T06:32:04.942Z,5.06
2023-01-04T06:34:31.739Z,5.16
2023-01-04T06:36:58.207Z,5.17
2023-01-04T06:39:24.605Z,5.18
2023-01-04T06:41:52.356Z,5.21
2023-01-04T06:44:18.753Z,2.07
2023-01-04T06:46:45.203Z,4.47
2023-01-04T06:49:11.587Z,4.97
2023-01-04T06:51:38.006Z,2.32
2023-01-04T06:54:04.402Z,4.57
2023-01-04T06:56:32.115Z,3.76
2023-01-04T06:58:59.854Z,4.86
2023-01-04T07:01:26.429Z,3.88
2023-01-04T07:03:52.898Z,4.79
2023-01-04T07:06:19.306Z,3.70
2023-01-04T07:08:45.703Z,4.78
2023-01-04T07:11:12.107Z,4.93
2023-01-04T07:13:38.506Z,4.98
2023-01-04T07:16:06.710Z,3.31
2023-01-04T07:18:33.157Z,4.19
2023-01-04T07:20:59.568Z,4.81
2023-01-04T07:23:25.959Z,3.49
2023-01-04T07:25:52.389Z,3.11
2023-01-04T07:28:38.771Z,4.39
2023-01-04T07:31:08.095Z,3.27
2023-01-04T07:33:34.583Z,4.37
2023-01-04T07:36:04.272Z,1.03
2023-01-04T07:38:30.666Z,4.20
2023-01-04T07:40:57.311Z,2.48
2023-01-04T07:43:27.850Z,1.82
2023-01-04T07:45:54.854Z,2.91
2023-01-04T07:48:22.734Z,4.06
2023-01-04T07:50:49.182Z,4.59
2023-01-04T07:53:15.594Z,4.72
2023-01-04T07:55:41.992Z,1.00
2023-01-04T07:58:08.487Z,2.04
2023-01-04T08:01:38.661Z,4.20
2023-01-04T08:04:06.182Z,3.28
2023-01-04T08:06:33.538Z,4.30
2023-01-04T08:09:00.768Z,4.45
2023-01-04T08:11:27.656Z,2.45
2023-01-04T08:13:54.247Z,3.60
2023-01-04T08:16:23.459Z,3.92
2023-01-04T08:18:55.139Z,4.43
2023-01-04T08:21:22.291Z,4.73
2023-01-04T08:23:48.892Z,4.61
2023-01-04T08:26:17.167Z,4.78
2023-01-04T08:28:44.621Z,4.60
2023-01-04T08:31:13.382Z,5.20
2023-01-04T08:33:41.439Z,4.71
2023-01-04T08:36:12.031Z,4.83
2023-01-04T08:41:55.918Z,6.18
2023-01-04T08:44:12.973Z,6.81
2023-01-04T08:46:39.604Z,5.09
2023-01-04T08:49:06.199Z,4.90
2023-01-04T08:51:34.230Z,4.82
2023-01-04T08:54:00.729Z,4.94
2023-01-04T08:56:27.257Z,8.03
2023-01-04T08:58:54.421Z,5.59
2023-01-04T09:01:21.065Z,7.24
2023-01-04T09:03:47.917Z,6.97
2023-01-04T09:06:15.953Z,5.17
2023-01-04T09:08:44.306Z,5.32
2023-01-04T09:11:13.839Z,4.98
2023-01-04T09:13:40.825Z,5.02
2023-01-04T09:16:09.862Z,4.91
2023-01-04T09:18:36.780Z,5.07
2023-01-04T09:21:06.151Z,4.92
2023-01-04T09:23:34.211Z,4.86
2023-01-04T09:26:09.299Z,4.84
2023-01-04T09:28:36.913Z,5.03
2023-01-04T09:31:07.286Z,7.99
2023-01-04T09:34:03.977Z,7.71
2023-01-04T09:36:21.210Z,7.23
2023-01-04T09:38:49.140Z,7.41
2023-01-04T09:41:24.184Z,5.55
2023-01-04T09:43:52.909Z,5.55
2023-01-04T09:46:29.339Z,7.58
2023-01-04T09:49:05.549Z,8.72
2023-01-04T09:51:36.237Z,9.45
2023-01-04T09:54:08.448Z,9.88
2023-01-04T09:56:37.560Z,6.82
2023-01-04T09:59:09.314Z,6.41
2023-01-04T10:01:44.676Z,6.49
2023-01-04T10:04:16.266Z,6.11
2023-01-04T10:06:43.705Z,5.93
2023-01-04T10:09:13.337Z,5.68
2023-01-04T10:11:59.021Z,6.38
2023-01-04T10:14:41.750Z,7.31
2023-01-04T10:17:44.391Z,6.67
2023-01-04T10:23:27.952Z,5.94
2023-01-04T10:25:56.642Z,7.03
2023-01-04T10:28:39.885Z,6.61
2023-01-04T10:31:40.149Z,7.69
2023-01-04T10:34:22.519Z,7.20
2023-01-04T10:36:51.292Z,6.45
2023-01-04T10:39:21.823Z,6.33
2023-01-04T10:41:54.596Z,5.80
2023-01-04T10:44:28.073Z,5.52
2023-01-04T10:47:05.115Z,5.42
2023-01-04T10:49:42.826Z,5.64
2023-01-04T10:52:16.081Z,5.67
2023-01-04T10:54:48.882Z,5.51
2023-01-04T10:57:20.880Z,5.85
2023-01-04T10:59:56.766Z,5.49
2023-01-04T11:02:31.629Z,5.74
2023-01-04T11:05:05.008Z,5.36
2023-01-04T11:07:37.539Z,5.41
2023-01-04T11:10:09.188Z,5.56
2023-01-04T11:12:36.070Z,5.48
2023-01-04T11:15:05.112Z,5.38
2023-01-04T11:17:32.461Z,5.41
2023-01-04T11:20:00.775Z,5.55
2023-01-04T11:22:35.533Z,5.58
2023-01-04T11:25:34.486Z,5.51
2023-01-04T11:28:01.548Z,5.55
2023-01-04T11:30:46.425Z,5.41
2023-01-04T11:33:16.951Z,5.57
2023-01-04T11:35:46.175Z,5.77
2023-01-04T11:38:15.649Z,5.91
2023-01-04T11:40:53.709Z,5.71
2023-01-04T11:43:21.701Z,5.49
2023-01-04T11:45:58.837Z,5.45
2023-01-04T11:48:37.543Z,5.48
2023-01-04T11:51:05.451Z,5.57
2023-01-04T11:53:34.017Z,5.64
2023-01-04T11:56:16.331Z,5.55
2023-01-04T11:58:44.611Z,5.46
2023-01-04T12:01:23.759Z,5.48
2023-01-04T12:03:51.153Z,5.60
2023-01-04T12:06:20.913Z,5.59
2023-01-04T12:08:47.759Z,5.43
2023-01-04T12:11:22.893Z,5.45
2023-01-04T12:13:49.449Z,5.50
2023-01-04T12:16:28.338Z,5.43
2023-01-04T12:18:55.269Z,5.54
2023-01-04T12:21:23.727Z,5.65
2023-01-04T12:23:51.759Z,5.57
2023-01-04T12:26:19.576Z,5.55
2023-01-04T12:28:48.220Z,6.33
2023-01-04T12:31:33.547Z,5.83
2023-01-04T12:34:39.886Z,5.59
2023-01-04T12:37:06.897Z,5.72
2023-01-04T12:39:43.520Z,6.54
2023-01-04T12:42:15.730Z,6.49
2023-01-04T12:45:16.840Z,6.56
2023-01-04T12:48:05.466Z,6.81
2023-01-04T12:50:32.215Z,6.94
2023-01-04T12:53:28.254Z,6.92
2023-01-04T12:55:53.964Z,6.20
2023-01-04T13:02:16.450Z,6.91
2023-01-04T13:04:44.583Z,6.66
2023-01-04T13:07:18.111Z,6.34
2023-01-04T13:09:52.029Z,6.08
2023-01-04T13:12:56.174Z,6.50
2023-01-04T13:15:31.691Z,6.43
2023-01-04T13:17:58.940Z,6.33
2023-01-04T13:20:28.977Z,6.45
2023-01-04T13:22:57.907Z,6.54
2023-01-04T13:25:25.200Z,6.54
2023-01-04T13:27:56.347Z,6.29
2023-01-04T13:30:31.250Z,6.52
2023-01-04T13:33:24.941Z,6.17
2023-01-04T13:36:01.350Z,6.41
2023-01-04T13:38:28.011Z,6.68
2023-01-04T13:40:54.832Z,6.13
2023-01-04T13:43:54.201Z,6.53
2023-01-04T13:46:22.535Z,6.52
2023-01-04T13:48:52.039Z,6.84
2023-01-04T13:51:30.592Z,6.33
2023-01-04T13:54:04.174Z,5.95
2023-01-04T13:56:33.516Z,6.62
2023-01-04T13:59:00.829Z,6.46
2023-01-04T14:01:30.240Z,6.20
2023-01-04T14:03:59.011Z,6.14
2023-01-04T14:06:30.526Z,6.33
2023-01-04T14:09:02.969Z,6.58
2023-01-04T14:11:50.640Z,6.68
2023-01-04T14:14:24.336Z,5.95
2023-01-04T14:16:53.438Z,6.39
2023-01-04T14:19:43.014Z,6.53
2023-01-04T14:22:28.652Z,6.44
2023-01-04T14:25:08.925Z,6.21
2023-01-04T14:27:37.986Z,6.35
2023-01-04T14:30:16.029Z,6.06
2023-01-04T14:32:52.097Z,5.95
2023-01-04T14:35:18.877Z,5.93
2023-01-04T14:37:47.018Z,6.03
2023-01-04T14:40:15.668Z,6.01
2023-01-04T14:42:42.232Z,5.97
2023-01-04T14:45:12.837Z,6.00
2023-01-04T14:47:39.597Z,5.97
2023-01-04T14:50:06.731Z,5.94
2023-01-04T14:52:33.253Z,5.94
2023-01-04T14:55:04.771Z,6.02
2023-01-04T14:57:31.501Z,6.08
2023-01-04T14:59:58.040Z,6.09
2023-01-04T15:02:26.959Z,6.10
2023-01-04T15:04:53.813Z,6.34
2023-01-04T15:07:35.212Z,6.97
2023-01-04T15:10:04.390Z,6.91
2023-01-04T15:12:31.019Z,6.65
2023-01-04T15:14:57.560Z,6.55
2023-01-04T15:17:24.124Z,6.79
2023-01-04T15:19:50.672Z,6.38
2023-01-04T15:22:17.251Z,6.29
2023-01-04T15:24:43.839Z,6.37
2023-01-04T15:27:11.884Z,6.36
2023-01-04T15:29:38.439Z,6.50
2023-01-04T15:32:05.288Z,6.47
2023-01-04T15:34:31.977Z,6.44
2023-01-04T15:36:58.529Z,6.50
2023-01-04T15:39:25.075Z,6.52
2023-01-04T15:42:10.445Z,6.43
2023-01-04T15:44:38.349Z,6.45
2023-01-04T15:47:04.949Z,6.42
2023-01-04T15:49:31.628Z,6.41
2023-01-04T15:51:58.221Z,6.40
2023-01-04T15:54:25.421Z,6.43
2023-01-04T15:56:52.094Z,6.50
2023-01-04T15:59:19.201Z,6.54
2023-01-04T16:01:47.881Z,6.50
2023-01-04T16:04:14.640Z,6.52
2023-01-04T16:06:41.669Z,6.55
2023-01-04T16:09:08.410Z,6.48
2023-01-04T16:11:34.954Z,6.07
2023-01-04T16:14:02.258Z,6.33
2023-01-04T16:16:29.036Z,6.52
2023-01-04T16:18:57.212Z,6.59
2023-01-04T16:21:25.661Z,6.68
2023-01-04T16:23:57.045Z,6.61
2023-01-04T16:26:26.861Z,6.79
2023-01-04T16:28:54.574Z,6.82
2023-01-04T16:31:21.903Z,6.86
2023-01-04T16:33:51.909Z,6.45
2023-01-04T16:36:19.832Z,6.62
2023-01-04T16:38:46.478Z,6.84
2023-01-04T16:41:15.186Z,6.89
2023-01-04T16:43:46.761Z,6.92
2023-01-04T16:46:23.037Z,6.91
2023-01-04T16:48:51.885Z,6.39
2023-01-04T16:51:20.466Z,6.81
2023-01-04T16:53:47.036Z,6.92
2023-01-04T16:56:15.518Z,6.95
2023-01-04T16:58:45.306Z,6.85
2023-01-04T17:01:13.191Z,6.60
2023-01-04T17:03:40.024Z,6.74
2023-01-04T17:06:08.137Z,6.81
2023-01-04T17:08:36.295Z,6.84
2023-01-04T17:11:56.325Z,6.79
2023-01-04T17:13:55.348Z,6.86
2023-01-04T17:16:22.873Z,6.92
2023-01-04T17:18:50.661Z,5.63
2023-01-04T17:21:35.510Z,6.34
2023-01-04T17:24:04.269Z,4.95
2023-01-04T17:26:32.334Z,6.41
2023-01-04T17:29:00.764Z,6.72
2023-01-04T17:31:30.353Z,6.75
2023-01-04T17:33:56.955Z,6.89
2023-01-04T17:36:23.827Z,6.91
2023-01-04T17:38:50.801Z,6.93
2023-01-04T17:41:20.345Z,6.08
2023-01-04T17:43:49.335Z,6.58
2023-01-04T17:46:22.755Z,5.88
2023-01-04T17:48:58.851Z,6.68
2023-01-04T17:51:37.583Z,6.86
2023-01-04T17:54:05.765Z,6.91
2023-01-04T17:56:34.255Z,6.89
2023-01-04T17:59:02.779Z,6.90
2023-01-04T18:01:30.817Z,6.73
2023-01-04T18:03:59.279Z,6.19
2023-01-04T18:06:28.565Z,6.73
2023-01-04T18:08:55.259Z,6.83
2023-01-04T18:11:22.085Z,6.75
2023-01-04T18:13:50.428Z,6.86
2023-01-04T18:16:24.254Z,6.86
2023-01-04T18:18:51.667Z,6.87
2023-01-04T18:21:28.465Z,6.86
2023-01-04T18:27:19.429Z,6.86
2023-01-04T18:29:34.512Z,6.83
2023-01-04T18:32:01.183Z,5.75
2023-01-04T18:34:27.843Z,6.63
2023-01-04T18:36:54.410Z,6.87
2023-01-04T18:39:21.379Z,6.86
2023-01-04T18:41:47.919Z,6.85
2023-01-04T18:47:03.670Z,6.44
2023-01-04T18:49:30.394Z,6.78
2023-01-04T18:51:56.920Z,5.83
2023-01-04T18:54:23.522Z,6.54
2023-01-04T18:56:51.269Z,6.75
2023-01-04T18:59:19.807Z,6.80
2023-01-04T19:01:46.544Z,6.62
2023-01-04T19:04:16.196Z,6.82
2023-01-04T19:06:43.241Z,6.84
2023-01-04T19:09:09.935Z,6.85
2023-01-04T19:11:36.498Z,6.81
2023-01-04T19:14:03.668Z,6.00
2023-01-04T19:16:31.552Z,6.71
2023-01-04T19:18:59.674Z,6.17
2023-01-04T19:21:27.969Z,6.70
2023-01-04T19:23:54.864Z,6.75
2023-01-04T19:26:22.393Z,6.34
2023-01-04T19:28:49.412Z,6.64
2023-01-04T19:31:17.604Z,6.36
2023-01-04T19:33:45.305Z,6.65
2023-01-04T19:36:14.033Z,6.73
2023-01-04T19:38:42.372Z,6.84
2023-01-04T19:41:16.106Z,5.93
2023-01-04T19:43:42.988Z,6.75
2023-01-04T19:46:11.546Z,6.30
2023-01-04T19:48:38.708Z,6.08
2023-01-04T19:51:06.763Z,6.64
2023-01-04T19:53:33.417Z,6.75
2023-01-04T19:56:01.683Z,6.73
2023-01-04T19:58:29.346Z,6.78
2023-01-04T20:00:55.996Z,6.76
2023-01-04T20:03:23.551Z,6.75
2023-01-04T20:05:50.107Z,6.74
2023-01-04T20:08:16.860Z,6.75
2023-01-04T20:10:43.475Z,6.67
2023-01-04T20:13:11.333Z,5.44
2023-01-04T20:15:39.037Z,6.02
2023-01-04T20:18:10.213Z,6.52
2023-01-04T20:20:41.137Z,5.99
2023-01-04T20:23:07.967Z,6.41
2023-01-04T20:25:38.472Z,6.60
2023-01-04T20:28:05.061Z,4.86
2023-01-04T20:30:33.019Z,6.36
2023-01-04T20:32:59.562Z,6.61
2023-01-04T20:35:26.208Z,6.63
2023-01-04T20:37:55.693Z,6.62
2023-01-04T20:40:22.313Z,6.40
2023-01-04T20:43:18.181Z,6.57
2023-01-04T20:45:47.712Z,6.65
2023-01-04T20:48:15.019Z,6.66
2023-01-04T20:50:41.889Z,6.67
2023-01-04T20:53:09.232Z,6.65
2023-01-04T20:55:40.130Z,6.61
2023-01-04T20:58:08.879Z,6.65
2023-01-04T21:00:36.149Z,6.64
2023-01-04T21:03:05.324Z,6.65
2023-01-04T21:05:35.909Z,6.58
2023-01-04T21:08:02.469Z,6.60
2023-01-04T21:10:29.073Z,6.63
2023-01-04T21:12:55.635Z,6.65
2023-01-04T21:15:22.175Z,6.64
2023-01-04T21:17:48.716Z,6.66
2023-01-04T21:20:16.857Z,6.65
2023-01-04T21:22:43.430Z,6.64
2023-01-04T21:25:10.018Z,6.49
2023-01-04T21:27:36.564Z,6.44
2023-01-04T21:30:04.036Z,6.59
2023-01-04T21:32:31.118Z,6.59
2023-01-04T21:34:57.767Z,6.59
2023-01-04T21:37:25.696Z,5.48
2023-01-04T21:39:52.266Z,6.05
2023-01-04T21:42:18.839Z,6.13
2023-01-04T21:44:45.470Z,4.68
2023-01-04T21:47:12.036Z,5.35
2023-01-04T21:49:43.590Z,6.20
2023-01-04T21:52:10.734Z,6.09
2023-01-04T21:54:38.972Z,6.05
2023-01-04T21:57:07.846Z,6.34
2023-01-04T21:59:35.630Z,6.26
2023-01-04T22:02:02.423Z,6.36
2023-01-04T22:04:29.015Z,6.45
2023-01-04T22:06:55.633Z,5.96
2023-01-04T22:09:22.361Z,5.29
2023-01-04T22:11:50.787Z,6.27
2023-01-04T22:14:17.879Z,6.39
2023-01-04T22:16:44.659Z,6.26
2023-01-04T22:19:12.579Z,6.24
2023-01-04T22:21:39.474Z,6.11
2023-01-04T22:24:06.865Z,6.41
2023-01-04T22:26:34.303Z,6.29
2023-01-04T22:29:02.202Z,6.12
2023-01-04T22:31:28.806Z,6.19
2023-01-04T22:33:55.552Z,6.44
2023-01-04T22:36:23.785Z,6.33
2023-01-04T22:38:51.374Z,6.19
2023-01-04T22:41:21.031Z,6.47
2023-01-04T22:43:47.720Z,6.36
2023-01-04T22:46:17.879Z,6.46
2023-01-04T22:48:45.233Z,6.05
2023-01-04T22:51:13.764Z,6.35
2023-01-04T22:53:40.828Z,6.21
2023-01-04T22:56:18.867Z,6.39
2023-01-04T22:58:52.023Z,6.13
2023-01-04T23:01:21.895Z,6.34
2023-01-04T23:03:48.905Z,6.33
2023-01-04T23:06:15.685Z,6.18
2023-01-04T23:08:42.381Z,6.25
2023-01-04T23:11:11.199Z,6.27
2023-01-04T23:13:38.116Z,6.27
2023-01-04T23:16:05.518Z,6.20
2023-01-04T23:18:33.816Z,6.42
2023-01-04T23:21:00.706Z,5.88
2023-01-04T23:23:27.569Z,6.10
2023-01-04T23:25:54.204Z,6.02
2023-01-04T23:28:20.821Z,6.11
2023-01-04T23:30:48.545Z,6.01
2023-01-04T23:33:15.471Z,6.31
2023-01-04T23:35:43.428Z,6.43
2023-01-04T23:38:09.963Z,6.35
2023-01-04T23:40:36.526Z,6.36
2023-01-04T23:43:03.117Z,6.40
2023-01-04T23:45:29.650Z,6.30
2023-01-04T23:47:56.281Z,6.43
2023-01-04T23:50:22.824Z,6.46
2023-01-04T23:52:50.712Z,6.48
2023-01-04T23:55:17.464Z,6.48
2023-01-04T23:57:44.046Z,6.50
